sensor_id;sensor_type;location;lat;lon;timestamp;pressure;altitude;pressure_sealevel;temperature;humidity
75521;BME280;64102;48.628;9.002;2023-07-02T00:00:30;95577.84;;;15.31;100.00
75521;BME280;64102;48.628;9.002;2023-07-02T00:02:55;95574.47;;;15.31;100.00
75521;BME280;64102;48.628;9.002;2023-07-02T00:05:21;95575.47;;;15.30;100.00
75521;BME280;64102;48.628;9.002;2023-07-02T00:07:46;95580.22;;;15.26;100.00
75521;BME280;64102;48.628;9.002;2023-07-02T00:10:11;95576.16;;;15.23;100.00
75521;BME280;64102;48.628;9.002;2023-07-02T00:12:37;95576.91;;;15.17;100.00
75521;BME280;64102;48.628;9.002;2023-07-02T00:15:03;95575.38;;;15.08;100.00
75521;BME280;64102;48.628;9.002;2023-07-02T00:17:29;95575.25;;;15.02;100.00
75521;BME280;64102;48.628;9.002;2023-07-02T00:19:54;95567.56;;;14.94;100.00
75521;BME280;64102;48.628;9.002;2023-07-02T00:22:20;95566.91;;;14.92;100.00
75521;BME280;64102;48.628;9.002;2023-07-02T00:24:46;95568.91;;;14.90;100.00
75521;BME280;64102;48.628;9.002;2023-07-02T00:27:11;95572.66;;;14.87;100.00
75521;BME280;64102;48.628;9.002;2023-07-02T00:29:37;95568.91;;;14.90;100.00
75521;BME280;64102;48.628;9.002;2023-07-02T00:32:02;95568.69;;;14.91;100.00
75521;BME280;64102;48.628;9.002;2023-07-02T00:34:28;95573.56;;;14.94;100.00
75521;BME280;64102;48.628;9.002;2023-07-02T00:36:53;95572.59;;;14.95;100.00
75521;BME280;64102;48.628;9.002;2023-07-02T00:39:18;95576.06;;;15.02;100.00
75521;BME280;64102;48.628;9.002;2023-07-02T00:41:44;95582.81;;;15.11;100.00
75521;BME280;64102;48.628;9.002;2023-07-02T00:44:12;95578.84;;;15.15;100.00
75521;BME280;64102;48.628;9.002;2023-07-02T00:46:37;95575.91;;;15.18;100.00
75521;BME280;64102;48.628;9.002;2023-07-02T00:49:04;95574.53;;;15.22;100.00
75521;BME280;64102;48.628;9.002;2023-07-02T00:51:29;95578.69;;;15.17;100.00
75521;BME280;64102;48.628;9.002;2023-07-02T00:53:57;95575.91;;;15.18;100.00
75521;BME280;64102;48.628;9.002;2023-07-02T00:56:24;95584.50;;;15.19;100.00
75521;BME280;64102;48.628;9.002;2023-07-02T00:58:51;95586.00;;;15.13;100.00
75521;BME280;64102;48.628;9.002;2023-07-02T01:01:19;95585.56;;;15.10;100.00
75521;BME280;64102;48.628;9.002;2023-07-02T01:03:51;95580.56;;;15.08;100.00
75521;BME280;64102;48.628;9.002;2023-07-02T01:06:23;95587.09;;;15.04;100.00
75521;BME280;64102;48.628;9.002;2023-07-02T01:08:59;95583.44;;;14.99;100.00
75521;BME280;64102;48.628;9.002;2023-07-02T01:11:30;95585.75;;;14.94;100.00
75521;BME280;64102;48.628;9.002;2023-07-02T01:14:11;95592.09;;;14.91;100.00
75521;BME280;64102;48.628;9.002;2023-07-02T01:16:41;95595.56;;;14.84;100.00
75521;BME280;64102;48.628;9.002;2023-07-02T01:19:13;95581.41;;;14.71;100.00
75521;BME280;64102;48.628;9.002;2023-07-02T01:21:44;95581.66;;;14.62;100.00
75521;BME280;64102;48.628;9.002;2023-07-02T01:24:10;95574.75;;;14.54;100.00
75521;BME280;64102;48.628;9.002;2023-07-02T01:26:36;95576.59;;;14.46;100.00
75521;BME280;64102;48.628;9.002;2023-07-02T01:29:23;95572.59;;;14.35;100.00
75521;BME280;64102;48.628;9.002;2023-07-02T01:31:49;95574.44;;;14.26;100.00
75521;BME280;64102;48.628;9.002;2023-07-02T01:34:14;95580.81;;;14.16;100.00
75521;BME280;64102;48.628;9.002;2023-07-02T01:36:40;95577.94;;;14.11;100.00
75521;BME280;64102;48.628;9.002;2023-07-02T01:39:06;95581.88;;;14.07;100.00
75521;BME280;64102;48.628;9.002;2023-07-02T01:41:42;95581.75;;;14.00;100.00
75521;BME280;64102;48.628;9.002;2023-07-02T01:44:07;95586.00;;;13.93;100.00
75521;BME280;64102;48.628;9.002;2023-07-02T01:46:33;95580.25;;;13.83;100.00
75521;BME280;64102;48.628;9.002;2023-07-02T01:48:58;95581.25;;;13.74;100.00
75521;BME280;64102;48.628;9.002;2023-07-02T01:51:23;95576.88;;;13.74;100.00
75521;BME280;64102;48.628;9.002;2023-07-02T01:53:49;95586.56;;;13.80;100.00
75521;BME280;64102;48.628;9.002;2023-07-02T01:56:14;95585.72;;;13.88;100.00
75521;BME280;64102;48.628;9.002;2023-07-02T01:58:40;95586.00;;;13.93;100.00
75521;BME280;64102;48.628;9.002;2023-07-02T02:01:05;95581.81;;;13.92;100.00
75521;BME280;64102;48.628;9.002;2023-07-02T02:03:30;95583.25;;;13.95;100.00
75521;BME280;64102;48.628;9.002;2023-07-02T02:05:56;95585.97;;;14.01;100.00
75521;BME280;64102;48.628;9.002;2023-07-02T02:08:21;95587.41;;;14.04;100.00
75521;BME280;64102;48.628;9.002;2023-07-02T02:10:46;95581.06;;;14.06;100.00
75521;BME280;64102;48.628;9.002;2023-07-02T02:13:11;95588.31;;;14.11;100.00
75521;BME280;64102;48.628;9.002;2023-07-02T02:15:37;95588.16;;;14.12;100.00
75521;BME280;64102;48.628;9.002;2023-07-02T02:18:02;95590.75;;;14.12;100.00
75521;BME280;64102;48.628;9.002;2023-07-02T02:20:28;95591.72;;;14.11;100.00
75521;BME280;64102;48.628;9.002;2023-07-02T02:22:53;95586.22;;;14.14;100.00
75521;BME280;64102;48.628;9.002;2023-07-02T02:25:18;95584.59;;;14.13;100.00
75521;BME280;64102;48.628;9.002;2023-07-02T02:27:44;95585.34;;;14.22;100.00
75521;BME280;64102;48.628;9.002;2023-07-02T02:30:09;95587.78;;;14.23;100.00
75521;BME280;64102;48.628;9.002;2023-07-02T02:32:34;95577.41;;;14.23;100.00
75521;BME280;64102;48.628;9.002;2023-07-02T02:35:00;95575.47;;;14.17;100.00
75521;BME280;64102;48.628;9.002;2023-07-02T02:37:25;95580.59;;;14.25;100.00
75521;BME280;64102;48.628;9.002;2023-07-02T02:39:51;95580.72;;;14.32;100.00
75521;BME280;64102;48.628;9.002;2023-07-02T02:42:16;95582.97;;;14.35;100.00
75521;BME280;64102;48.628;9.002;2023-07-02T02:44:41;95588.16;;;14.35;100.00
75521;BME280;64102;48.628;9.002;2023-07-02T02:47:07;95586.53;;;14.34;100.00
75521;BME280;64102;48.628;9.002;2023-07-02T02:49:32;95589.94;;;14.34;100.00
75521;BME280;64102;48.628;9.002;2023-07-02T02:51:57;95595.63;;;14.38;100.00
75521;BME280;64102;48.628;9.002;2023-07-02T02:54:23;95593.00;;;14.46;100.00
75521;BME280;64102;48.628;9.002;2023-07-02T02:56:48;95593.44;;;14.50;100.00
75521;BME280;64102;48.628;9.002;2023-07-02T02:59:14;95595.03;;;14.51;100.00
75521;BME280;64102;48.628;9.002;2023-07-02T03:01:39;95601.56;;;14.47;100.00
75521;BME280;64102;48.628;9.002;2023-07-02T03:04:04;95606.81;;;14.39;100.00
75521;BME280;64102;48.628;9.002;2023-07-02T03:06:33;95614.28;;;14.33;100.00
75521;BME280;64102;48.628;9.002;2023-07-02T03:08:59;95606.56;;;14.25;100.00
75521;BME280;64102;48.628;9.002;2023-07-02T03:11:24;95614.41;;;14.17;100.00
75521;BME280;64102;48.628;9.002;2023-07-02T03:13:50;95617.88;;;14.10;100.00
75521;BME280;64102;48.628;9.002;2023-07-02T03:16:15;95621.47;;;14.01;100.00
75521;BME280;64102;48.628;9.002;2023-07-02T03:18:40;95624.41;;;13.98;100.00
75521;BME280;64102;48.628;9.002;2023-07-02T03:21:06;95625.91;;;13.92;100.00
75521;BME280;64102;48.628;9.002;2023-07-02T03:23:31;95635.00;;;13.88;100.00
75521;BME280;64102;48.628;9.002;2023-07-02T03:25:56;95637.31;;;13.83;100.00
75521;BME280;64102;48.628;9.002;2023-07-02T03:28:22;95636.03;;;13.79;100.00
75521;BME280;64102;48.628;9.002;2023-07-02T03:30:47;95638.00;;;13.69;100.00
75521;BME280;64102;48.628;9.002;2023-07-02T03:33:12;95641.59;;;13.60;100.00
75521;BME280;64102;48.628;9.002;2023-07-02T03:35:38;95640.63;;;13.61;100.00
75521;BME280;64102;48.628;9.002;2023-07-02T03:38:04;95643.38;;;13.59;100.00
75521;BME280;64102;48.628;9.002;2023-07-02T03:40:31;95636.28;;;13.53;100.00
75521;BME280;64102;48.628;9.002;2023-07-02T03:42:56;95638.38;;;13.50;100.00
75521;BME280;64102;48.628;9.002;2023-07-02T03:45:22;95642.25;;;13.54;100.00
75521;BME280;64102;48.628;9.002;2023-07-02T03:47:47;95650.34;;;13.59;100.00
75521;BME280;64102;48.628;9.002;2023-07-02T03:50:12;95650.22;;;13.52;100.00
75521;BME280;64102;48.628;9.002;2023-07-02T03:52:38;95664.00;;;13.44;100.00
75521;BME280;64102;48.628;9.002;2023-07-02T03:55:03;95664.34;;;13.41;100.00
75521;BME280;64102;48.628;9.002;2023-07-02T03:57:29;95662.09;;;13.38;100.00
75521;BME280;64102;48.628;9.002;2023-07-02T03:59:55;95661.78;;;13.33;100.00
75521;BME280;64102;48.628;9.002;2023-07-02T04:02:20;95662.25;;;13.37;100.00
75521;BME280;64102;48.628;9.002;2023-07-02T04:04:46;95663.53;;;13.41;100.00
75521;BME280;64102;48.628;9.002;2023-07-02T04:07:11;95670.03;;;13.37;100.00
75521;BME280;64102;48.628;9.002;2023-07-02T04:09:36;95673.56;;;13.44;100.00
75521;BME280;64102;48.628;9.002;2023-07-02T04:12:02;95679.56;;;13.44;100.00
75521;BME280;64102;48.628;9.002;2023-07-02T04:14:27;95678.75;;;13.44;100.00
75521;BME280;64102;48.628;9.002;2023-07-02T04:16:53;95681.19;;;13.45;100.00
75521;BME280;64102;48.628;9.002;2023-07-02T04:19:18;95689.28;;;13.51;100.00
75521;BME280;64102;48.628;9.002;2023-07-02T04:21:44;95693.31;;;13.53;100.00
75521;BME280;64102;48.628;9.002;2023-07-02T04:24:09;95691.34;;;13.63;100.00
75521;BME280;64102;48.628;9.002;2023-07-02T04:26:34;95693.94;;;13.63;100.00
75521;BME280;64102;48.628;9.002;2023-07-02T04:29:02;95696.03;;;13.68;100.00
75521;BME280;64102;48.628;9.002;2023-07-02T04:31:27;95699.56;;;13.75;100.00
75521;BME280;64102;48.628;9.002;2023-07-02T04:33:52;95700.97;;;13.85;100.00
75521;BME280;64102;48.628;9.002;2023-07-02T04:36:18;95687.47;;;13.98;100.00
75521;BME280;64102;48.628;9.002;2023-07-02T04:38:43;95696.53;;;14.10;100.00
75521;BME280;64102;48.628;9.002;2023-07-02T04:41:08;95695.19;;;14.14;100.00
75521;BME280;64102;48.628;9.002;2023-07-02T04:43:35;95693.28;;;14.08;100.00
75521;BME280;64102;48.628;9.002;2023-07-02T04:46:01;95689.13;;;13.91;100.00
75521;BME280;64102;48.628;9.002;2023-07-02T04:48:26;95694.00;;;13.86;100.00
75521;BME280;64102;48.628;9.002;2023-07-02T04:50:52;95696.56;;;13.94;100.00
75521;BME280;64102;48.628;9.002;2023-07-02T04:53:17;95692.41;;;14.16;100.00
75521;BME280;64102;48.628;9.002;2023-07-02T04:55:43;95698.13;;;14.11;100.00
75521;BME280;64102;48.628;9.002;2023-07-02T04:58:08;95712.09;;;14.10;100.00
75521;BME280;64102;48.628;9.002;2023-07-02T05:00:34;95706.91;;;14.33;100.00
75521;BME280;64102;48.628;9.002;2023-07-02T05:02:59;95707.34;;;14.53;100.00
75521;BME280;64102;48.628;9.002;2023-07-02T05:05:24;95709.41;;;14.57;100.00
75521;BME280;64102;48.628;9.002;2023-07-02T05:07:50;95715.03;;;14.38;100.00
75521;BME280;64102;48.628;9.002;2023-07-02T05:10:15;95710.72;;;14.22;100.00
75521;BME280;64102;48.628;9.002;2023-07-02T05:12:41;95717.78;;;14.06;100.00
75521;BME280;64102;48.628;9.002;2023-07-02T05:15:06;95721.66;;;14.02;100.00
75521;BME280;64102;48.628;9.002;2023-07-02T05:17:32;95730.44;;;14.01;100.00
75521;BME280;64102;48.628;9.002;2023-07-02T05:20:00;95729.44;;;14.10;100.00
75521;BME280;64102;48.628;9.002;2023-07-02T05:22:26;95732.59;;;14.28;100.00
75521;BME280;64102;48.628;9.002;2023-07-02T05:24:51;95734.56;;;14.57;100.00
75521;BME280;64102;48.628;9.002;2023-07-02T05:27:16;95731.19;;;14.79;100.00
75521;BME280;64102;48.628;9.002;2023-07-02T05:29:43;95732.16;;;15.01;100.00
75521;BME280;64102;48.628;9.002;2023-07-02T05:32:08;95726.13;;;15.23;100.00
75521;BME280;64102;48.628;9.002;2023-07-02T05:34:34;95730.66;;;15.44;100.00
75521;BME280;64102;48.628;9.002;2023-07-02T05:36:59;95734.56;;;15.62;100.00
75521;BME280;64102;48.628;9.002;2023-07-02T05:39:24;95731.88;;;15.56;98.39
75521;BME280;64102;48.628;9.002;2023-07-02T05:41:50;95722.03;;;15.66;97.69
75521;BME280;64102;48.628;9.002;2023-07-02T05:44:16;95734.03;;;15.67;96.16
75521;BME280;64102;48.628;9.002;2023-07-02T05:46:41;95736.91;;;15.72;94.25
75521;BME280;64102;48.628;9.002;2023-07-02T05:49:07;95736.56;;;15.75;94.39
75521;BME280;64102;48.628;9.002;2023-07-02T05:51:32;95745.53;;;15.87;92.97
75521;BME280;64102;48.628;9.002;2023-07-02T05:53:57;95742.66;;;15.97;89.76
75521;BME280;64102;48.628;9.002;2023-07-02T05:56:23;95754.50;;;16.29;89.57
75521;BME280;64102;48.628;9.002;2023-07-02T05:58:48;95742.53;;;16.85;84.93
75521;BME280;64102;48.628;9.002;2023-07-02T06:01:14;95744.03;;;17.43;79.34
75521;BME280;64102;48.628;9.002;2023-07-02T06:03:40;95748.06;;;18.01;76.91
75521;BME280;64102;48.628;9.002;2023-07-02T06:06:05;95746.25;;;18.84;74.48
75521;BME280;64102;48.628;9.002;2023-07-02T06:08:30;95740.03;;;19.04;72.19
75521;BME280;64102;48.628;9.002;2023-07-02T06:10:56;95745.00;;;18.79;71.69
75521;BME280;64102;48.628;9.002;2023-07-02T06:13:21;95750.44;;;18.85;70.94
75521;BME280;64102;48.628;9.002;2023-07-02T06:15:47;95750.81;;;18.75;70.83
75521;BME280;64102;48.628;9.002;2023-07-02T06:18:12;95752.59;;;17.86;75.97
75521;BME280;64102;48.628;9.002;2023-07-02T06:20:38;95753.00;;;17.83;76.32
75521;BME280;64102;48.628;9.002;2023-07-02T06:23:03;95754.25;;;18.28;75.15
75521;BME280;64102;48.628;9.002;2023-07-02T06:25:29;95760.13;;;18.91;70.71
75521;BME280;64102;48.628;9.002;2023-07-02T06:27:54;95764.25;;;19.46;68.38
75521;BME280;64102;48.628;9.002;2023-07-02T06:30:23;95758.16;;;19.26;67.64
75521;BME280;64102;48.628;9.002;2023-07-02T06:32:48;95759.09;;;18.78;69.85
75521;BME280;64102;48.628;9.002;2023-07-02T06:35:14;95758.25;;;18.24;71.65
75521;BME280;64102;48.628;9.002;2023-07-02T06:37:39;95765.88;;;17.84;75.03
75521;BME280;64102;48.628;9.002;2023-07-02T06:40:05;95766.75;;;17.70;75.76
75521;BME280;64102;48.628;9.002;2023-07-02T06:42:31;95772.84;;;18.12;72.64
75521;BME280;64102;48.628;9.002;2023-07-02T06:44:58;95761.97;;;18.43;72.94
75521;BME280;64102;48.628;9.002;2023-07-02T06:47:23;95766.66;;;19.47;67.45
75521;BME280;64102;48.628;9.002;2023-07-02T06:49:48;95775.06;;;19.30;68.19
75521;BME280;64102;48.628;9.002;2023-07-02T06:52:14;95769.16;;;18.82;69.41
75521;BME280;64102;48.628;9.002;2023-07-02T06:54:39;95774.22;;;18.49;71.33
75521;BME280;64102;48.628;9.002;2023-07-02T06:57:05;95772.97;;;18.86;70.06
75521;BME280;64102;48.628;9.002;2023-07-02T06:59:30;95770.03;;;19.35;67.02
75521;BME280;64102;48.628;9.002;2023-07-02T07:01:56;95772.41;;;18.97;66.38
75521;BME280;64102;48.628;9.002;2023-07-02T07:04:21;95777.69;;;20.02;63.59
75521;BME280;64102;48.628;9.002;2023-07-02T07:06:47;95777.72;;;19.36;63.32
75521;BME280;64102;48.628;9.002;2023-07-02T07:09:12;95784.25;;;20.50;60.26
75521;BME280;64102;48.628;9.002;2023-07-02T07:11:38;95783.25;;;21.59;56.16
75521;BME280;64102;48.628;9.002;2023-07-02T07:14:03;95769.69;;;22.48;52.05
75521;BME280;64102;48.628;9.002;2023-07-02T07:16:28;95776.34;;;22.14;52.80
75521;BME280;64102;48.628;9.002;2023-07-02T07:18:53;95784.13;;;20.77;55.69
75521;BME280;64102;48.628;9.002;2023-07-02T07:21:19;95784.22;;;21.89;52.24
75521;BME280;64102;48.628;9.002;2023-07-02T07:23:44;95773.13;;;22.66;50.86
75521;BME280;64102;48.628;9.002;2023-07-02T07:26:10;95773.56;;;23.11;49.21
75521;BME280;64102;48.628;9.002;2023-07-02T07:28:35;95781.72;;;23.63;47.16
75521;BME280;64102;48.628;9.002;2023-07-02T07:31:01;95775.75;;;22.48;49.26
75521;BME280;64102;48.628;9.002;2023-07-02T07:33:26;95779.06;;;23.21;48.09
75521;BME280;64102;48.628;9.002;2023-07-02T07:35:52;95779.53;;;22.89;48.65
75521;BME280;64102;48.628;9.002;2023-07-02T07:38:18;95790.28;;;21.65;52.18
75521;BME280;64102;48.628;9.002;2023-07-02T07:40:43;95778.63;;;21.79;50.89
75521;BME280;64102;48.628;9.002;2023-07-02T07:43:09;95781.97;;;22.54;49.33
75521;BME280;64102;48.628;9.002;2023-07-02T07:45:34;95783.50;;;21.75;50.75
75521;BME280;64102;48.628;9.002;2023-07-02T07:48:00;95785.69;;;20.91;53.19
75521;BME280;64102;48.628;9.002;2023-07-02T07:50:26;95779.06;;;23.21;48.37
75521;BME280;64102;48.628;9.002;2023-07-02T07:52:51;95779.69;;;23.65;46.06
75521;BME280;64102;48.628;9.002;2023-07-02T07:55:17;95782.22;;;23.00;46.01
75521;BME280;64102;48.628;9.002;2023-07-02T07:57:42;95780.34;;;23.19;46.29
75521;BME280;64102;48.628;9.002;2023-07-02T08:00:08;95777.19;;;24.28;43.60
75521;BME280;64102;48.628;9.002;2023-07-02T08:02:36;95781.19;;;23.01;45.59
75521;BME280;64102;48.628;9.002;2023-07-02T08:05:02;95782.94;;;21.98;48.59
75521;BME280;64102;48.628;9.002;2023-07-02T08:07:28;95779.22;;;21.81;49.16
75521;BME280;64102;48.628;9.002;2023-07-02T08:09:53;95775.66;;;23.21;45.95
75521;BME280;64102;48.628;9.002;2023-07-02T08:12:19;95774.25;;;23.48;45.99
75521;BME280;64102;48.628;9.002;2023-07-02T08:14:44;95773.94;;;21.63;49.98
75521;BME280;64102;48.628;9.002;2023-07-02T08:17:09;95773.19;;;20.86;51.78
75521;BME280;64102;48.628;9.002;2023-07-02T08:19:35;95778.03;;;20.38;52.79
75521;BME280;64102;48.628;9.002;2023-07-02T08:22:00;95776.91;;;19.95;54.15
75521;BME280;64102;48.628;9.002;2023-07-02T08:24:25;95785.72;;;21.29;51.01
75521;BME280;64102;48.628;9.002;2023-07-02T08:26:51;95786.94;;;20.82;51.40
75521;BME280;64102;48.628;9.002;2023-07-02T08:29:16;95790.94;;;20.91;51.75
75521;BME280;64102;48.628;9.002;2023-07-02T08:31:41;95790.84;;;21.04;49.60
75521;BME280;64102;48.628;9.002;2023-07-02T08:34:08;95789.19;;;21.16;51.07
75521;BME280;64102;48.628;9.002;2023-07-02T08:36:33;95783.69;;;22.96;47.00
75521;BME280;64102;48.628;9.002;2023-07-02T08:38:59;95787.50;;;22.27;46.82
75521;BME280;64102;48.628;9.002;2023-07-02T08:41:24;95791.72;;;21.29;47.60
75521;BME280;64102;48.628;9.002;2023-07-02T08:43:50;95789.66;;;21.00;48.99
75521;BME280;64102;48.628;9.002;2023-07-02T08:46:17;95793.41;;;21.55;48.42
75521;BME280;64102;48.628;9.002;2023-07-02T08:48:42;95791.47;;;21.06;50.52
75521;BME280;64102;48.628;9.002;2023-07-02T08:51:08;95780.31;;;20.73;51.54
75521;BME280;64102;48.628;9.002;2023-07-02T08:53:33;95784.94;;;22.21;47.83
75521;BME280;64102;48.628;9.002;2023-07-02T08:56:00;95780.19;;;23.14;44.21
75521;BME280;64102;48.628;9.002;2023-07-02T08:58:26;95781.22;;;22.83;45.10
75521;BME280;64102;48.628;9.002;2023-07-02T09:01:07;95776.03;;;22.04;46.59
75521;BME280;64102;48.628;9.002;2023-07-02T09:03:33;95779.63;;;20.90;48.21
75521;BME280;64102;48.628;9.002;2023-07-02T09:05:59;95780.72;;;21.70;47.13
75521;BME280;64102;48.628;9.002;2023-07-02T09:08:28;95775.31;;;22.51;46.45
75521;BME280;64102;48.628;9.002;2023-07-02T09:11:14;95770.09;;;21.34;47.55
75521;BME280;64102;48.628;9.002;2023-07-02T09:13:46;95771.78;;;21.78;47.31
75521;BME280;64102;48.628;9.002;2023-07-02T09:19:05;95778.81;;;23.11;45.18
75521;BME280;64102;48.628;9.002;2023-07-02T09:21:45;95775.44;;;24.10;41.27
75521;BME280;64102;48.628;9.002;2023-07-02T09:24:14;95783.22;;;22.99;44.16
75521;BME280;64102;48.628;9.002;2023-07-02T09:26:47;95780.84;;;22.25;45.28
75521;BME280;64102;48.628;9.002;2023-07-02T09:29:18;95779.53;;;22.52;44.53
75521;BME280;64102;48.628;9.002;2023-07-02T09:31:59;95778.88;;;22.39;45.26
75521;BME280;64102;48.628;9.002;2023-07-02T09:34:28;95779.53;;;22.16;45.73
75521;BME280;64102;48.628;9.002;2023-07-02T09:36:54;95789.84;;;21.93;45.26
75521;BME280;64102;48.628;9.002;2023-07-02T09:39:24;95778.31;;;22.73;43.00
75521;BME280;64102;48.628;9.002;2023-07-02T09:41:50;95786.25;;;21.37;45.00
75521;BME280;64102;48.628;9.002;2023-07-02T09:44:17;95797.72;;;21.68;45.05
75521;BME280;64102;48.628;9.002;2023-07-02T09:46:49;95786.28;;;23.14;41.89
75521;BME280;64102;48.628;9.002;2023-07-02T09:49:20;95783.81;;;24.07;40.06
75521;BME280;64102;48.628;9.002;2023-07-02T09:51:45;95778.56;;;24.31;39.09
75521;BME280;64102;48.628;9.002;2023-07-02T09:54:11;95772.28;;;25.00;36.97
75521;BME280;64102;48.628;9.002;2023-07-02T09:56:39;95776.38;;;25.98;35.68
75521;BME280;64102;48.628;9.002;2023-07-02T09:59:05;95767.28;;;26.27;33.88
75521;BME280;64102;48.628;9.002;2023-07-02T10:01:30;95764.47;;;25.50;34.62
75521;BME280;64102;48.628;9.002;2023-07-02T10:03:55;95774.13;;;26.45;34.54
75521;BME280;64102;48.628;9.002;2023-07-02T10:06:21;95779.59;;;24.70;37.00
75521;BME280;64102;48.628;9.002;2023-07-02T10:08:54;95775.16;;;25.55;33.21
75521;BME280;64102;48.628;9.002;2023-07-02T10:11:19;95779.00;;;24.91;33.50
75521;BME280;64102;48.628;9.002;2023-07-02T10:13:45;95768.09;;;24.87;34.69
75521;BME280;64102;48.628;9.002;2023-07-02T10:16:10;95765.75;;;25.48;32.75
75521;BME280;64102;48.628;9.002;2023-07-02T10:18:36;95771.38;;;26.01;31.30
75521;BME280;64102;48.628;9.002;2023-07-02T10:24:23;95774.91;;;27.37;29.62
75521;BME280;64102;48.628;9.002;2023-07-02T10:26:59;95770.56;;;26.99;29.89
75521;BME280;64102;48.628;9.002;2023-07-02T10:29:26;95773.75;;;27.28;30.07
75521;BME280;64102;48.628;9.002;2023-07-02T10:31:52;95769.53;;;25.52;33.13
75521;BME280;64102;48.628;9.002;2023-07-02T10:34:34;95770.56;;;26.78;31.03
75521;BME280;64102;48.628;9.002;2023-07-02T10:37:03;95769.91;;;27.68;30.42
75521;BME280;64102;48.628;9.002;2023-07-02T10:39:30;95773.91;;;26.29;32.12
75521;BME280;64102;48.628;9.002;2023-07-02T10:42:09;95768.13;;;28.10;29.27
75521;BME280;64102;48.628;9.002;2023-07-02T10:44:47;95765.13;;;29.16;28.09
75521;BME280;64102;48.628;9.002;2023-07-02T10:47:12;95759.41;;;27.83;29.14
75521;BME280;64102;48.628;9.002;2023-07-02T10:49:38;95768.38;;;27.77;28.89
75521;BME280;64102;48.628;9.002;2023-07-02T10:52:03;95759.75;;;27.33;29.06
75521;BME280;64102;48.628;9.002;2023-07-02T10:57:05;95757.66;;;27.35;29.55
75521;BME280;64102;48.628;9.002;2023-07-02T10:59:30;95757.81;;;28.19;28.45
75521;BME280;64102;48.628;9.002;2023-07-02T11:01:56;95756.88;;;28.45;27.95
75521;BME280;64102;48.628;9.002;2023-07-02T11:04:27;95752.97;;;29.30;27.96
75521;BME280;64102;48.628;9.002;2023-07-02T11:06:52;95762.81;;;29.65;26.67
75521;BME280;64102;48.628;9.002;2023-07-02T11:09:18;95765.91;;;28.39;27.41
75521;BME280;64102;48.628;9.002;2023-07-02T11:11:53;95768.13;;;27.78;29.09
75521;BME280;64102;48.628;9.002;2023-07-02T11:14:33;95759.91;;;27.21;29.35
75521;BME280;64102;48.628;9.002;2023-07-02T11:17:01;95760.88;;;26.23;30.66
75521;BME280;64102;48.628;9.002;2023-07-02T11:19:28;95758.44;;;27.94;28.29
75521;BME280;64102;48.628;9.002;2023-07-02T11:21:55;95763.38;;;28.17;26.73
75521;BME280;64102;48.628;9.002;2023-07-02T11:24:34;95762.09;;;28.25;26.20
75521;BME280;64102;48.628;9.002;2023-07-02T11:27:01;95753.59;;;27.22;27.71
75521;BME280;64102;48.628;9.002;2023-07-02T11:29:31;95751.47;;;27.51;26.43
75521;BME280;64102;48.628;9.002;2023-07-02T11:32:06;95762.50;;;25.74;29.90
75521;BME280;64102;48.628;9.002;2023-07-02T11:34:32;95762.63;;;24.77;32.26
75521;BME280;64102;48.628;9.002;2023-07-02T11:36:57;95763.66;;;26.77;29.97
75521;BME280;64102;48.628;9.002;2023-07-02T11:39:23;95758.56;;;25.76;29.87
75521;BME280;64102;48.628;9.002;2023-07-02T11:41:49;95759.38;;;25.60;30.64
75521;BME280;64102;48.628;9.002;2023-07-02T11:44:16;95759.59;;;25.14;31.79
75521;BME280;64102;48.628;9.002;2023-07-02T11:46:41;95760.81;;;24.66;32.85
75521;BME280;64102;48.628;9.002;2023-07-02T11:49:06;95754.59;;;24.32;33.42
75521;BME280;64102;48.628;9.002;2023-07-02T11:51:38;95745.41;;;24.75;32.30
75521;BME280;64102;48.628;9.002;2023-07-02T11:54:04;95749.00;;;26.09;30.77
75521;BME280;64102;48.628;9.002;2023-07-02T11:56:30;95740.50;;;26.89;29.75
75521;BME280;64102;48.628;9.002;2023-07-02T11:58:56;95746.72;;;27.26;27.51
75521;BME280;64102;48.628;9.002;2023-07-02T12:01:21;95737.72;;;27.91;26.69
75521;BME280;64102;48.628;9.002;2023-07-02T12:03:47;95742.81;;;29.27;26.57
75521;BME280;64102;48.628;9.002;2023-07-02T12:06:12;95739.56;;;28.89;25.56
75521;BME280;64102;48.628;9.002;2023-07-02T12:08:38;95726.63;;;27.99;27.09
75521;BME280;64102;48.628;9.002;2023-07-02T12:11:03;95734.91;;;28.08;25.95
75521;BME280;64102;48.628;9.002;2023-07-02T12:13:28;95737.88;;;28.68;26.56
75521;BME280;64102;48.628;9.002;2023-07-02T12:15:54;95735.78;;;28.75;25.12
75521;BME280;64102;48.628;9.002;2023-07-02T12:18:19;95739.03;;;28.98;25.43
75521;BME280;64102;48.628;9.002;2023-07-02T12:20:44;95733.41;;;28.17;26.18
75521;BME280;64102;48.628;9.002;2023-07-02T12:23:10;95727.19;;;28.53;25.73
75521;BME280;64102;48.628;9.002;2023-07-02T12:25:36;95725.59;;;28.05;25.17
75521;BME280;64102;48.628;9.002;2023-07-02T12:28:03;95733.53;;;28.42;24.72
75521;BME280;64102;48.628;9.002;2023-07-02T12:30:29;95730.63;;;27.65;24.92
75521;BME280;64102;48.628;9.002;2023-07-02T12:32:55;95732.34;;;27.81;24.09
75521;BME280;64102;48.628;9.002;2023-07-02T12:35:20;95729.91;;;28.11;24.29
75521;BME280;64102;48.628;9.002;2023-07-02T12:37:49;95720.22;;;27.95;25.59
75521;BME280;64102;48.628;9.002;2023-07-02T12:40:15;95733.13;;;28.75;24.44
75521;BME280;64102;48.628;9.002;2023-07-02T12:42:41;95722.13;;;29.34;23.07
75521;BME280;64102;48.628;9.002;2023-07-02T12:45:08;95726.53;;;28.93;23.86
75521;BME280;64102;48.628;9.002;2023-07-02T12:47:33;95728.91;;;28.84;24.65
75521;BME280;64102;48.628;9.002;2023-07-02T12:49:59;95722.91;;;29.29;23.41
75521;BME280;64102;48.628;9.002;2023-07-02T12:52:24;95721.00;;;29.20;23.83
75521;BME280;64102;48.628;9.002;2023-07-02T12:54:50;95725.56;;;29.60;22.76
75521;BME280;64102;48.628;9.002;2023-07-02T12:57:16;95728.50;;;29.78;23.55
75521;BME280;64102;48.628;9.002;2023-07-02T12:59:42;95731.94;;;29.23;23.01